sensor_id;sensor_type;location;lat;lon;timestamp;P1;durP1;ratioP1;P2;durP2;ratioP2
53409;SDS011;66590;50.734;4.246;2023-09-12T00:01:21;24.10;;;18.50;;
53409;SDS011;66590;50.734;4.246;2023-09-12T00:03:48;26.80;;;21.27;;
53409;SDS011;66590;50.734;4.246;2023-09-12T00:06:15;22.25;;;17.05;;
53409;SDS011;66590;50.734;4.246;2023-09-12T00:08:42;23.33;;;18.00;;
53409;SDS011;66590;50.734;4.246;2023-09-12T00:11:09;28.63;;;21.98;;
53409;SDS011;66590;50.734;4.246;2023-09-12T00:13:38;26.20;;;20.05;;
53409;SDS011;66590;50.734;4.246;2023-09-12T00:16:06;31.35;;;20.10;;
53409;SDS011;66590;50.734;4.246;2023-09-12T00:18:33;24.40;;;19.20;;
53409;SDS011;66590;50.734;4.246;2023-09-12T00:21:00;24.23;;;19.40;;
53409;SDS011;66590;50.734;4.246;2023-09-12T00:23:28;31.83;;;21.88;;
53409;SDS011;66590;50.734;4.246;2023-09-12T00:25:56;31.88;;;25.05;;
53409;SDS011;66590;50.734;4.246;2023-09-12T00:28:23;33.65;;;25.13;;
53409;SDS011;66590;50.734;4.246;2023-09-12T00:30:53;36.15;;;27.17;;
53409;SDS011;66590;50.734;4.246;2023-09-12T00:33:19;36.33;;;27.50;;
53409;SDS011;66590;50.734;4.246;2023-09-12T00:35:47;30.73;;;22.35;;
53409;SDS011;66590;50.734;4.246;2023-09-12T00:38:14;34.10;;;24.00;;
53409;SDS011;66590;50.734;4.246;2023-09-12T00:40:41;30.90;;;23.52;;
53409;SDS011;66590;50.734;4.246;2023-09-12T00:43:08;41.17;;;26.42;;
53409;SDS011;66590;50.734;4.246;2023-09-12T00:45:34;37.97;;;27.45;;
53409;SDS011;66590;50.734;4.246;2023-09-12T00:48:03;34.35;;;26.40;;
53409;SDS011;66590;50.734;4.246;2023-09-12T00:50:31;34.33;;;25.52;;
53409;SDS011;66590;50.734;4.246;2023-09-12T00:52:59;27.73;;;23.15;;
53409;SDS011;66590;50.734;4.246;2023-09-12T00:55:29;30.15;;;23.45;;
53409;SDS011;66590;50.734;4.246;2023-09-12T00:57:58;28.95;;;22.55;;
53409;SDS011;66590;50.734;4.246;2023-09-12T01:00:25;27.55;;;22.30;;
53409;SDS011;66590;50.734;4.246;2023-09-12T01:02:53;33.97;;;24.23;;
53409;SDS011;66590;50.734;4.246;2023-09-12T01:05:22;37.28;;;26.08;;
53409;SDS011;66590;50.734;4.246;2023-09-12T01:07:49;38.97;;;26.70;;
53409;SDS011;66590;50.734;4.246;2023-09-12T01:10:16;40.58;;;31.23;;
53409;SDS011;66590;50.734;4.246;2023-09-12T01:12:43;40.20;;;30.23;;
53409;SDS011;66590;50.734;4.246;2023-09-12T01:15:10;40.85;;;29.27;;
53409;SDS011;66590;50.734;4.246;2023-09-12T01:17:37;45.75;;;32.92;;
53409;SDS011;66590;50.734;4.246;2023-09-12T01:20:05;45.60;;;33.15;;
53409;SDS011;66590;50.734;4.246;2023-09-12T01:22:44;42.20;;;33.45;;
53409;SDS011;66590;50.734;4.246;2023-09-12T01:25:42;46.50;;;33.72;;
53409;SDS011;66590;50.734;4.246;2023-09-12T01:28:24;45.75;;;34.40;;
53409;SDS011;66590;50.734;4.246;2023-09-12T01:30:53;53.20;;;36.30;;
53409;SDS011;66590;50.734;4.246;2023-09-12T01:33:21;46.47;;;32.72;;
53409;SDS011;66590;50.734;4.246;2023-09-12T01:35:48;41.00;;;30.52;;
53409;SDS011;66590;50.734;4.246;2023-09-12T01:38:15;43.50;;;33.22;;
53409;SDS011;66590;50.734;4.246;2023-09-12T01:40:43;42.97;;;33.20;;
53409;SDS011;66590;50.734;4.246;2023-09-12T01:43:13;43.92;;;33.00;;
53409;SDS011;66590;50.734;4.246;2023-09-12T01:45:44;47.10;;;33.80;;
53409;SDS011;66590;50.734;4.246;2023-09-12T01:48:12;49.10;;;33.60;;
53409;SDS011;66590;50.734;4.246;2023-09-12T01:50:45;43.40;;;34.10;;
53409;SDS011;66590;50.734;4.246;2023-09-12T01:53:12;43.30;;;33.05;;
53409;SDS011;66590;50.734;4.246;2023-09-12T01:55:39;47.45;;;34.85;;
53409;SDS011;66590;50.734;4.246;2023-09-12T01:58:08;46.70;;;34.55;;
53409;SDS011;66590;50.734;4.246;2023-09-12T02:00:35;46.15;;;33.75;;
53409;SDS011;66590;50.734;4.246;2023-09-12T02:03:04;46.22;;;34.72;;
53409;SDS011;66590;50.734;4.246;2023-09-12T02:05:31;48.60;;;33.58;;
53409;SDS011;66590;50.734;4.246;2023-09-12T02:07:59;45.38;;;33.38;;
53409;SDS011;66590;50.734;4.246;2023-09-12T02:10:26;45.65;;;33.58;;
53409;SDS011;66590;50.734;4.246;2023-09-12T02:12:52;45.03;;;32.95;;
53409;SDS011;66590;50.734;4.246;2023-09-12T02:15:19;44.08;;;34.05;;
53409;SDS011;66590;50.734;4.246;2023-09-12T02:17:46;47.47;;;33.28;;
53409;SDS011;66590;50.734;4.246;2023-09-12T02:20:15;46.25;;;32.40;;
53409;SDS011;66590;50.734;4.246;2023-09-12T02:22:42;45.17;;;33.40;;
53409;SDS011;66590;50.734;4.246;2023-09-12T02:25:09;47.38;;;34.20;;
53409;SDS011;66590;50.734;4.246;2023-09-12T02:27:36;46.72;;;33.47;;
53409;SDS011;66590;50.734;4.246;2023-09-12T02:30:03;48.22;;;34.30;;
53409;SDS011;66590;50.734;4.246;2023-09-12T02:32:31;44.85;;;32.45;;
53409;SDS011;66590;50.734;4.246;2023-09-12T02:34:58;41.67;;;31.08;;
53409;SDS011;66590;50.734;4.246;2023-09-12T02:37:27;41.60;;;31.73;;
53409;SDS011;66590;50.734;4.246;2023-09-12T02:39:54;43.20;;;31.25;;
53409;SDS011;66590;50.734;4.246;2023-09-12T02:42:21;41.42;;;31.85;;
53409;SDS011;66590;50.734;4.246;2023-09-12T02:44:48;38.95;;;31.58;;
53409;SDS011;66590;50.734;4.246;2023-09-12T02:47:15;40.28;;;31.00;;
53409;SDS011;66590;50.734;4.246;2023-09-12T02:49:42;39.92;;;31.17;;
53409;SDS011;66590;50.734;4.246;2023-09-12T02:52:08;41.42;;;31.52;;
53409;SDS011;66590;50.734;4.246;2023-09-12T02:54:37;40.90;;;30.00;;
53409;SDS011;66590;50.734;4.246;2023-09-12T02:57:04;41.22;;;30.70;;
53409;SDS011;66590;50.734;4.246;2023-09-12T02:59:31;37.40;;;30.05;;
53409;SDS011;66590;50.734;4.246;2023-09-12T03:01:58;38.60;;;29.35;;
53409;SDS011;66590;50.734;4.246;2023-09-12T03:04:25;39.90;;;29.50;;
53409;SDS011;66590;50.734;4.246;2023-09-12T03:06:52;38.58;;;29.98;;
53409;SDS011;66590;50.734;4.246;2023-09-12T03:09:19;39.45;;;29.95;;
53409;SDS011;66590;50.734;4.246;2023-09-12T03:11:48;35.47;;;29.20;;
53409;SDS011;66590;50.734;4.246;2023-09-12T03:14:15;37.55;;;28.60;;
53409;SDS011;66590;50.734;4.246;2023-09-12T03:16:41;39.15;;;29.45;;
53409;SDS011;66590;50.734;4.246;2023-09-12T03:19:08;40.03;;;29.75;;
53409;SDS011;66590;50.734;4.246;2023-09-12T03:21:35;36.58;;;28.77;;
53409;SDS011;66590;50.734;4.246;2023-09-12T03:24:02;35.22;;;27.02;;
53409;SDS011;66590;50.734;4.246;2023-09-12T03:26:30;39.50;;;28.60;;
53409;SDS011;66590;50.734;4.246;2023-09-12T03:29:01;32.65;;;25.73;;
53409;SDS011;66590;50.734;4.246;2023-09-12T03:31:29;33.80;;;26.77;;
53409;SDS011;66590;50.734;4.246;2023-09-12T03:33:56;35.70;;;27.30;;
53409;SDS011;66590;50.734;4.246;2023-09-12T03:36:23;33.15;;;26.45;;
53409;SDS011;66590;50.734;4.246;2023-09-12T03:38:50;35.97;;;27.70;;
53409;SDS011;66590;50.734;4.246;2023-09-12T03:41:17;34.92;;;26.83;;
53409;SDS011;66590;50.734;4.246;2023-09-12T03:43:44;35.47;;;28.20;;
53409;SDS011;66590;50.734;4.246;2023-09-12T03:46:12;35.55;;;27.60;;
53409;SDS011;66590;50.734;4.246;2023-09-12T03:48:40;35.30;;;26.90;;
53409;SDS011;66590;50.734;4.246;2023-09-12T03:51:07;37.47;;;27.67;;
53409;SDS011;66590;50.734;4.246;2023-09-12T03:53:34;36.10;;;28.55;;
53409;SDS011;66590;50.734;4.246;2023-09-12T03:56:01;35.78;;;27.25;;
53409;SDS011;66590;50.734;4.246;2023-09-12T03:58:28;38.88;;;27.63;;
53409;SDS011;66590;50.734;4.246;2023-09-12T04:00:55;36.60;;;26.08;;
53409;SDS011;66590;50.734;4.246;2023-09-12T04:03:24;35.67;;;27.52;;
53409;SDS011;66590;50.734;4.246;2023-09-12T04:05:51;35.58;;;26.58;;
53409;SDS011;66590;50.734;4.246;2023-09-12T04:08:18;33.45;;;25.30;;
53409;SDS011;66590;50.734;4.246;2023-09-12T04:10:45;33.42;;;26.55;;
53409;SDS011;66590;50.734;4.246;2023-09-12T04:13:12;35.58;;;26.30;;
53409;SDS011;66590;50.734;4.246;2023-09-12T04:15:39;37.28;;;28.15;;
53409;SDS011;66590;50.734;4.246;2023-09-12T04:18:06;36.67;;;27.70;;
53409;SDS011;66590;50.734;4.246;2023-09-12T04:20:34;33.42;;;27.75;;
53409;SDS011;66590;50.734;4.246;2023-09-12T04:23:01;35.92;;;27.10;;
53409;SDS011;66590;50.734;4.246;2023-09-12T04:25:29;37.13;;;26.48;;
53409;SDS011;66590;50.734;4.246;2023-09-12T04:27:56;35.60;;;26.17;;
53409;SDS011;66590;50.734;4.246;2023-09-12T04:30:23;33.85;;;25.85;;
53409;SDS011;66590;50.734;4.246;2023-09-12T04:32:50;34.72;;;26.55;;
53409;SDS011;66590;50.734;4.246;2023-09-12T04:35:17;33.22;;;25.27;;
53409;SDS011;66590;50.734;4.246;2023-09-12T04:37:45;34.35;;;26.25;;
53409;SDS011;66590;50.734;4.246;2023-09-12T04:40:12;42.15;;;29.50;;
53409;SDS011;66590;50.734;4.246;2023-09-12T04:42:39;43.65;;;30.40;;
53409;SDS011;66590;50.734;4.246;2023-09-12T04:45:06;39.13;;;30.05;;
53409;SDS011;66590;50.734;4.246;2023-09-12T04:47:34;40.42;;;29.67;;
53409;SDS011;66590;50.734;4.246;2023-09-12T04:50:01;42.38;;;30.92;;
53409;SDS011;66590;50.734;4.246;2023-09-12T04:52:28;37.30;;;27.60;;
53409;SDS011;66590;50.734;4.246;2023-09-12T04:55:00;33.97;;;26.05;;
53409;SDS011;66590;50.734;4.246;2023-09-12T04:57:27;35.17;;;26.00;;
53409;SDS011;66590;50.734;4.246;2023-09-12T04:59:54;35.38;;;25.85;;
53409;SDS011;66590;50.734;4.246;2023-09-12T05:02:21;36.65;;;28.70;;
53409;SDS011;66590;50.734;4.246;2023-09-12T05:04:48;39.55;;;27.05;;
53409;SDS011;66590;50.734;4.246;2023-09-12T05:07:15;41.13;;;30.60;;
53409;SDS011;66590;50.734;4.246;2023-09-12T05:09:42;42.05;;;30.95;;
53409;SDS011;66590;50.734;4.246;2023-09-12T05:12:10;44.42;;;30.60;;
53409;SDS011;66590;50.734;4.246;2023-09-12T05:14:37;42.55;;;31.20;;
53409;SDS011;66590;50.734;4.246;2023-09-12T05:17:04;44.25;;;32.83;;
53409;SDS011;66590;50.734;4.246;2023-09-12T05:19:31;40.72;;;30.92;;
53409;SDS011;66590;50.734;4.246;2023-09-12T05:21:58;44.92;;;31.73;;
53409;SDS011;66590;50.734;4.246;2023-09-12T05:24:25;42.63;;;31.13;;
53409;SDS011;66590;50.734;4.246;2023-09-12T05:26:52;42.92;;;30.85;;
53409;SDS011;66590;50.734;4.246;2023-09-12T05:29:21;42.60;;;31.77;;
53409;SDS011;66590;50.734;4.246;2023-09-12T05:31:48;40.10;;;29.70;;
53409;SDS011;66590;50.734;4.246;2023-09-12T05:34:15;43.83;;;31.13;;
53409;SDS011;66590;50.734;4.246;2023-09-12T05:36:42;40.13;;;29.33;;
53409;SDS011;66590;50.734;4.246;2023-09-12T05:39:09;43.72;;;31.90;;
53409;SDS011;66590;50.734;4.246;2023-09-12T05:41:36;39.80;;;28.48;;
53409;SDS011;66590;50.734;4.246;2023-09-12T05:44:03;42.05;;;29.65;;
53409;SDS011;66590;50.734;4.246;2023-09-12T05:46:31;39.55;;;28.98;;
53409;SDS011;66590;50.734;4.246;2023-09-12T05:48:58;43.05;;;31.50;;
53409;SDS011;66590;50.734;4.246;2023-09-12T05:51:25;39.80;;;28.75;;
53409;SDS011;66590;50.734;4.246;2023-09-12T05:53:52;41.25;;;29.25;;
53409;SDS011;66590;50.734;4.246;2023-09-12T05:56:19;38.63;;;29.25;;
53409;SDS011;66590;50.734;4.246;2023-09-12T05:58:46;42.63;;;29.80;;
53409;SDS011;66590;50.734;4.246;2023-09-12T06:01:15;40.05;;;30.67;;
53409;SDS011;66590;50.734;4.246;2023-09-12T06:03:43;38.72;;;30.30;;
53409;SDS011;66590;50.734;4.246;2023-09-12T06:06:10;42.75;;;31.33;;
53409;SDS011;66590;50.734;4.246;2023-09-12T06:08:37;45.50;;;32.67;;
53409;SDS011;66590;50.734;4.246;2023-09-12T06:11:05;48.47;;;32.25;;
53409;SDS011;66590;50.734;4.246;2023-09-12T06:13:32;41.95;;;32.38;;
53409;SDS011;66590;50.734;4.246;2023-09-12T06:15:59;42.22;;;31.27;;
53409;SDS011;66590;50.734;4.246;2023-09-12T06:18:27;45.72;;;33.05;;
53409;SDS011;66590;50.734;4.246;2023-09-12T06:20:55;43.75;;;32.47;;
53409;SDS011;66590;50.734;4.246;2023-09-12T06:23:22;46.83;;;34.20;;
53409;SDS011;66590;50.734;4.246;2023-09-12T06:25:49;44.33;;;32.97;;
53409;SDS011;66590;50.734;4.246;2023-09-12T06:28:24;47.45;;;33.13;;
53409;SDS011;66590;50.734;4.246;2023-09-12T06:30:52;50.72;;;35.45;;
53409;SDS011;66590;50.734;4.246;2023-09-12T06:33:19;47.80;;;33.88;;
53409;SDS011;66590;50.734;4.246;2023-09-12T06:35:47;49.55;;;32.60;;
53409;SDS011;66590;50.734;4.246;2023-09-12T06:38:16;44.45;;;32.05;;
53409;SDS011;66590;50.734;4.246;2023-09-12T06:40:43;45.25;;;31.67;;
53409;SDS011;66590;50.734;4.246;2023-09-12T06:43:10;44.63;;;31.08;;
53409;SDS011;66590;50.734;4.246;2023-09-12T06:45:37;42.28;;;30.92;;
53409;SDS011;66590;50.734;4.246;2023-09-12T06:48:05;42.90;;;30.55;;
53409;SDS011;66590;50.734;4.246;2023-09-12T06:50:32;42.83;;;31.20;;
53409;SDS011;66590;50.734;4.246;2023-09-12T06:53:00;41.70;;;29.35;;
53409;SDS011;66590;50.734;4.246;2023-09-12T06:55:29;42.33;;;30.40;;
53409;SDS011;66590;50.734;4.246;2023-09-12T06:57:55;40.85;;;28.67;;
53409;SDS011;66590;50.734;4.246;2023-09-12T07:00:22;41.13;;;28.23;;
53409;SDS011;66590;50.734;4.246;2023-09-12T07:02:49;35.45;;;24.63;;
53409;SDS011;66590;50.734;4.246;2023-09-12T07:05:17;36.28;;;25.80;;
53409;SDS011;66590;50.734;4.246;2023-09-12T07:07:44;33.85;;;25.05;;
53409;SDS011;66590;50.734;4.246;2023-09-12T07:10:11;36.92;;;26.00;;
53409;SDS011;66590;50.734;4.246;2023-09-12T07:12:51;38.55;;;26.00;;
53409;SDS011;66590;50.734;4.246;2023-09-12T07:15:19;37.47;;;26.17;;
53409;SDS011;66590;50.734;4.246;2023-09-12T07:17:46;35.05;;;25.15;;
53409;SDS011;66590;50.734;4.246;2023-09-12T07:20:13;36.53;;;24.40;;
53409;SDS011;66590;50.734;4.246;2023-09-12T07:22:40;31.67;;;23.70;;
53409;SDS011;66590;50.734;4.246;2023-09-12T07:25:08;30.50;;;23.60;;
53409;SDS011;66590;50.734;4.246;2023-09-12T07:27:35;33.42;;;23.98;;
53409;SDS011;66590;50.734;4.246;2023-09-12T07:30:04;32.72;;;24.77;;
53409;SDS011;66590;50.734;4.246;2023-09-12T07:32:32;38.13;;;24.42;;
53409;SDS011;66590;50.734;4.246;2023-09-12T07:34:59;37.40;;;25.15;;
53409;SDS011;66590;50.734;4.246;2023-09-12T07:37:26;33.33;;;23.45;;
53409;SDS011;66590;50.734;4.246;2023-09-12T07:39:53;31.60;;;23.33;;
53409;SDS011;66590;50.734;4.246;2023-09-12T07:42:21;31.80;;;24.17;;
53409;SDS011;66590;50.734;4.246;2023-09-12T07:44:49;30.67;;;24.00;;
53409;SDS011;66590;50.734;4.246;2023-09-12T07:47:17;31.88;;;24.13;;
53409;SDS011;66590;50.734;4.246;2023-09-12T07:49:44;27.88;;;22.08;;
53409;SDS011;66590;50.734;4.246;2023-09-12T07:52:11;31.30;;;23.17;;
53409;SDS011;66590;50.734;4.246;2023-09-12T07:54:38;31.20;;;22.45;;
53409;SDS011;66590;50.734;4.246;2023-09-12T07:57:05;29.60;;;22.83;;
53409;SDS011;66590;50.734;4.246;2023-09-12T07:59:33;30.05;;;21.63;;
53409;SDS011;66590;50.734;4.246;2023-09-12T08:02:00;27.23;;;21.25;;
53409;SDS011;66590;50.734;4.246;2023-09-12T08:04:28;27.70;;;22.02;;
53409;SDS011;66590;50.734;4.246;2023-09-12T08:06:55;24.05;;;20.10;;
53409;SDS011;66590;50.734;4.246;2023-09-12T08:09:44;29.38;;;21.33;;
53409;SDS011;66590;50.734;4.246;2023-09-12T08:12:15;29.00;;;21.55;;
53409;SDS011;66590;50.734;4.246;2023-09-12T08:14:42;31.20;;;21.52;;
53409;SDS011;66590;50.734;4.246;2023-09-12T08:17:09;26.83;;;20.73;;
53409;SDS011;66590;50.734;4.246;2023-09-12T08:19:38;30.30;;;22.33;;
53409;SDS011;66590;50.734;4.246;2023-09-12T08:22:05;30.60;;;22.02;;
53409;SDS011;66590;50.734;4.246;2023-09-12T08:24:33;31.50;;;23.67;;
53409;SDS011;66590;50.734;4.246;2023-09-12T08:27:00;29.70;;;22.15;;
53409;SDS011;66590;50.734;4.246;2023-09-12T08:29:27;33.95;;;23.30;;
53409;SDS011;66590;50.734;4.246;2023-09-12T08:31:55;34.42;;;24.00;;
53409;SDS011;66590;50.734;4.246;2023-09-12T08:34:22;34.58;;;25.33;;
53409;SDS011;66590;50.734;4.246;2023-09-12T08:36:50;35.95;;;25.00;;
53409;SDS011;66590;50.734;4.246;2023-09-12T08:39:18;31.55;;;23.67;;
53409;SDS011;66590;50.734;4.246;2023-09-12T08:41:50;35.13;;;23.60;;
53409;SDS011;66590;50.734;4.246;2023-09-12T08:44:17;32.35;;;22.10;;
53409;SDS011;66590;50.734;4.246;2023-09-12T08:46:45;31.85;;;23.13;;
53409;SDS011;66590;50.734;4.246;2023-09-12T08:49:13;33.55;;;22.00;;
53409;SDS011;66590;50.734;4.246;2023-09-12T08:51:40;32.45;;;22.63;;
53409;SDS011;66590;50.734;4.246;2023-09-12T08:54:09;30.85;;;22.63;;
53409;SDS011;66590;50.734;4.246;2023-09-12T08:56:36;31.40;;;23.45;;
53409;SDS011;66590;50.734;4.246;2023-09-12T08:59:06;37.40;;;25.60;;
53409;SDS011;66590;50.734;4.246;2023-09-12T09:01:34;36.28;;;26.10;;
53409;SDS011;66590;50.734;4.246;2023-09-12T09:04:03;38.95;;;28.38;;
53409;SDS011;66590;50.734;4.246;2023-09-12T09:06:31;40.80;;;28.08;;
53409;SDS011;66590;50.734;4.246;2023-09-12T09:08:59;44.50;;;28.00;;
53409;SDS011;66590;50.734;4.246;2023-09-12T09:11:29;39.00;;;27.60;;
53409;SDS011;66590;50.734;4.246;2023-09-12T09:13:56;40.20;;;26.48;;
53409;SDS011;66590;50.734;4.246;2023-09-12T09:16:23;43.03;;;27.85;;
53409;SDS011;66590;50.734;4.246;2023-09-12T09:18:51;42.28;;;28.65;;
53409;SDS011;66590;50.734;4.246;2023-09-12T09:21:19;39.03;;;26.70;;
53409;SDS011;66590;50.734;4.246;2023-09-12T09:23:47;39.60;;;27.25;;
53409;SDS011;66590;50.734;4.246;2023-09-12T09:26:14;45.97;;;30.67;;
53409;SDS011;66590;50.734;4.246;2023-09-12T09:28:42;47.10;;;29.85;;
53409;SDS011;66590;50.734;4.246;2023-09-12T09:31:10;40.17;;;27.23;;
53409;SDS011;66590;50.734;4.246;2023-09-12T09:33:37;40.70;;;28.10;;
53409;SDS011;66590;50.734;4.246;2023-09-12T09:36:07;41.10;;;28.30;;
53409;SDS011;66590;50.734;4.246;2023-09-12T09:38:34;36.80;;;26.00;;
53409;SDS011;66590;50.734;4.246;2023-09-12T09:41:03;37.88;;;25.85;;
53409;SDS011;66590;50.734;4.246;2023-09-12T09:43:31;39.95;;;25.42;;
53409;SDS011;66590;50.734;4.246;2023-09-12T09:46:00;38.35;;;24.88;;
53409;SDS011;66590;50.734;4.246;2023-09-12T09:48:27;28.85;;;19.75;;
53409;SDS011;66590;50.734;4.246;2023-09-12T09:50:59;27.98;;;21.17;;
53409;SDS011;66590;50.734;4.246;2023-09-12T09:53:27;31.15;;;20.38;;
53409;SDS011;66590;50.734;4.246;2023-09-12T09:56:07;32.03;;;22.58;;
53409;SDS011;66590;50.734;4.246;2023-09-12T09:58:41;33.65;;;25.02;;
53409;SDS011;66590;50.734;4.246;2023-09-12T10:01:14;32.20;;;22.48;;
53409;SDS011;66590;50.734;4.246;2023-09-12T10:03:44;28.15;;;20.90;;
53409;SDS011;66590;50.734;4.246;2023-09-12T10:06:12;27.65;;;19.20;;
53409;SDS011;66590;50.734;4.246;2023-09-12T10:08:41;25.48;;;18.13;;
53409;SDS011;66590;50.734;4.246;2023-09-12T10:11:10;22.38;;;16.50;;
53409;SDS011;66590;50.734;4.246;2023-09-12T10:13:38;24.95;;;18.00;;
53409;SDS011;66590;50.734;4.246;2023-09-12T10:16:10;21.48;;;16.58;;
53409;SDS011;66590;50.734;4.246;2023-09-12T10:18:39;24.95;;;17.42;;
53409;SDS011;66590;50.734;4.246;2023-09-12T10:21:17;22.58;;;17.30;;
53409;SDS011;66590;50.734;4.246;2023-09-12T10:23:50;22.80;;;16.67;;
53409;SDS011;66590;50.734;4.246;2023-09-12T10:26:17;24.42;;;16.48;;
53409;SDS011;66590;50.734;4.246;2023-09-12T10:28:47;25.13;;;17.83;;
53409;SDS011;66590;50.734;4.246;2023-09-12T10:31:16;25.52;;;18.45;;
53409;SDS011;66590;50.734;4.246;2023-09-12T10:33:45;19.23;;;13.27;;
53409;SDS011;66590;50.734;4.246;2023-09-12T10:36:15;19.33;;;13.75;;
53409;SDS011;66590;50.734;4.246;2023-09-12T10:38:44;17.70;;;12.85;;
53409;SDS011;66590;50.734;4.246;2023-09-12T10:41:15;17.65;;;14.00;;
53409;SDS011;66590;50.734;4.246;2023-09-12T10:43:42;15.55;;;12.63;;
53409;SDS011;66590;50.734;4.246;2023-09-12T10:46:11;17.52;;;12.40;;
53409;SDS011;66590;50.734;4.246;2023-09-12T10:48:38;15.05;;;12.40;;
53409;SDS011;66590;50.734;4.246;2023-09-12T10:51:06;14.05;;;11.23;;
53409;SDS011;66590;50.734;4.246;2023-09-12T10:53:34;11.20;;;9.73;;
53409;SDS011;66590;50.734;4.246;2023-09-12T10:56:14;13.63;;;9.70;;
53409;SDS011;66590;50.734;4.246;2023-09-12T11:01:37;12.75;;;9.40;;
53409;SDS011;66590;50.734;4.246;2023-09-12T11:07:01;14.27;;;10.25;;
53409;SDS011;66590;50.734;4.246;2023-09-12T11:09:51;12.23;;;9.57;;
53409;SDS011;66590;50.734;4.246;2023-09-12T11:12:46;9.93;;;8.43;;
53409;SDS011;66590;50.734;4.246;2023-09-12T11:15:14;10.13;;;9.07;;
53409;SDS011;66590;50.734;4.246;2023-09-12T11:17:41;11.18;;;8.15;;
53409;SDS011;66590;50.734;4.246;2023-09-12T11:20:09;9.30;;;8.05;;
53409;SDS011;66590;50.734;4.246;2023-09-12T11:22:39;12.45;;;10.00;;
53409;SDS011;66590;50.734;4.246;2023-09-12T11:25:16;11.50;;;9.32;;
53409;SDS011;66590;50.734;4.246;2023-09-12T11:27:45;12.05;;;9.73;;
53409;SDS011;66590;50.734;4.246;2023-09-12T11:30:28;12.50;;;9.32;;
53409;SDS011;66590;50.734;4.246;2023-09-12T11:32:55;10.90;;;8.77;;
53409;SDS011;66590;50.734;4.246;2023-09-12T11:35:22;11.35;;;9.23;;
53409;SDS011;66590;50.734;4.246;2023-09-12T11:37:53;13.75;;;9.57;;
53409;SDS011;66590;50.734;4.246;2023-09-12T11:40:22;13.38;;;10.70;;
53409;SDS011;66590;50.734;4.246;2023-09-12T11:42:50;12.25;;;10.95;;
53409;SDS011;66590;50.734;4.246;2023-09-12T11:45:18;14.82;;;10.98;;
53409;SDS011;66590;50.734;4.246;2023-09-12T11:47:46;11.20;;;9.93;;
53409;SDS011;66590;50.734;4.246;2023-09-12T11:50:29;12.52;;;9.95;;
53409;SDS011;66590;50.734;4.246;2023-09-12T11:53:02;12.63;;;8.45;;
53409;SDS011;66590;50.734;4.246;2023-09-12T11:55:30;14.23;;;10.60;;
53409;SDS011;66590;50.734;4.246;2023-09-12T11:57:58;12.65;;;10.45;;
53409;SDS011;66590;50.734;4.246;2023-09-12T12:00:25;11.32;;;9.38;;
53409;SDS011;66590;50.734;4.246;2023-09-12T12:02:53;12.52;;;10.18;;
53409;SDS011;66590;50.734;4.246;2023-09-12T12:05:21;13.07;;;9.82;;
53409;SDS011;66590;50.734;4.246;2023-09-12T12:07:48;13.00;;;9.57;;
53409;SDS011;66590;50.734;4.246;2023-09-12T12:10:17;12.77;;;10.13;;
53409;SDS011;66590;50.734;4.246;2023-09-12T12:12:44;11.30;;;7.78;;
53409;SDS011;66590;50.734;4.246;2023-09-12T12:15:11;10.90;;;8.93;;
53409;SDS011;66590;50.734;4.246;2023-09-12T12:17:40;11.88;;;8.05;;
53409;SDS011;66590;50.734;4.246;2023-09-12T12:20:07;12.40;;;8.85;;
53409;SDS011;66590;50.734;4.246;2023-09-12T12:22:36;8.73;;;7.82;;
53409;SDS011;66590;50.734;4.246;2023-09-12T12:25:07;9.50;;;8.48;;
53409;SDS011;66590;50.734;4.246;2023-09-12T12:27:36;13.43;;;9.00;;
53409;SDS011;66590;50.734;4.246;2023-09-12T12:30:05;10.93;;;8.13;;
53409;SDS011;66590;50.734;4.246;2023-09-12T12:32:33;9.55;;;7.68;;
53409;SDS011;66590;50.734;4.246;2023-09-12T12:35:00;9.02;;;7.38;;
53409;SDS011;66590;50.734;4.246;2023-09-12T12:37:47;9.05;;;6.90;;
53409;SDS011;66590;50.734;4.246;2023-09-12T12:40:25;11.18;;;7.65;;
53409;SDS011;66590;50.734;4.246;2023-09-12T12:42:59;11.57;;;7.53;;
53409;SDS011;66590;50.734;4.246;2023-09-12T12:45:26;8.07;;;6.63;;
53409;SDS011;66590;50.734;4.246;2023-09-12T12:47:57;11.00;;;7.65;;
53409;SDS011;66590;50.734;4.246;2023-09-12T12:50:25;8.73;;;7.13;;
53409;SDS011;66590;50.734;4.246;2023-09-12T12:52:52;10.25;;;7.50;;
53409;SDS011;66590;50.734;4.246;2023-09-12T12:55:20;8.95;;;7.55;;
53409;SDS011;66590;50.734;4.246;2023-09-12T12:57:47;7.80;;;6.53;;
53409;SDS011;66590;50.734;4.246;2023-09-12T13:00:17;9.48;;;7.82;;
53409;SDS011;66590;50.734;4.246;2023-09-12T13:02:44;7.47;;;6.68;;
53409;SDS011;66590;50.734;4.246;2023-09-12T13:05:23;8.13;;;7.32;;
53409;SDS011;66590;50.734;4.246;2023-09-12T13:07:51;9.50;;;6.45;;
53409;SDS011;66590;50.734;4.246;2023-09-12T13:10:18;9.93;;;7.35;;
53409;SDS011;66590;50.734;4.246;2023-09-12T13:12:45;140.32;;;22.88;;
53409;SDS011;66590;50.734;4.246;2023-09-12T13:15:13;14.02;;;8.00;;
53409;SDS011;66590;50.734;4.246;2023-09-12T13:17:41;9.85;;;6.78;;
53409;SDS011;66590;50.734;4.246;2023-09-12T13:20:08;10.50;;;7.60;;
53409;SDS011;66590;50.734;4.246;2023-09-12T13:22:36;13.30;;;8.57;;
53409;SDS011;66590;50.734;4.246;2023-09-12T13:25:04;10.52;;;8.02;;
53409;SDS011;66590;50.734;4.246;2023-09-12T13:27:32;10.02;;;9.07;;
53409;SDS011;66590;50.734;4.246;2023-09-12T13:29:59;8.65;;;7.85;;
53409;SDS011;66590;50.734;4.246;2023-09-12T13:32:26;9.10;;;8.20;;
53409;SDS011;66590;50.734;4.246;2023-09-12T13:34:55;9.38;;;7.82;;
53409;SDS011;66590;50.734;4.246;2023-09-12T13:37:22;10.75;;;8.52;;
53409;SDS011;66590;50.734;4.246;2023-09-12T13:39:49;10.77;;;8.52;;
53409;SDS011;66590;50.734;4.246;2023-09-12T13:42:16;9.35;;;8.43;;
53409;SDS011;66590;50.734;4.246;2023-09-12T13:44:43;10.13;;;7.90;;
53409;SDS011;66590;50.734;4.246;2023-09-12T13:47:11;11.07;;;8.63;;
53409;SDS011;66590;50.734;4.246;2023-09-12T13:49:38;10.60;;;8.98;;
53409;SDS011;66590;50.734;4.246;2023-09-12T13:52:06;10.75;;;8.25;;
53409;SDS011;66590;50.734;4.246;2023-09-12T13:54:33;11.90;;;9.30;;
53409;SDS011;66590;50.734;4.246;2023-09-12T13:57:00;8.32;;;7.25;;
53409;SDS011;66590;50.734;4.246;2023-09-12T13:59:27;8.68;;;7.75;;
53409;SDS011;66590;50.734;4.246;2023-09-12T14:02:08;10.45;;;8.43;;
53409;SDS011;66590;50.734;4.246;2023-09-12T14:04:35;13.95;;;9.55;;
53409;SDS011;66590;50.734;4.246;2023-09-12T14:07:03;14.50;;;11.70;;
53409;SDS011;66590;50.734;4.246;2023-09-12T14:09:32;14.05;;;12.18;;
53409;SDS011;66590;50.734;4.246;2023-09-12T14:11:59;16.73;;;12.73;;
53409;SDS011;66590;50.734;4.246;2023-09-12T14:14:26;16.48;;;13.50;;
53409;SDS011;66590;50.734;4.246;2023-09-12T14:16:53;17.95;;;12.65;;
53409;SDS011;66590;50.734;4.246;2023-09-12T14:19:21;17.92;;;14.50;;
53409;SDS011;66590;50.734;4.246;2023-09-12T14:21:49;17.25;;;13.52;;
53409;SDS011;66590;50.734;4.246;2023-09-12T14:24:19;17.65;;;12.88;;
53409;SDS011;66590;50.734;4.246;2023-09-12T14:26:48;17.60;;;13.77;;
53409;SDS011;66590;50.734;4.246;2023-09-12T14:29:15;18.35;;;13.57;;
53409;SDS011;66590;50.734;4.246;2023-09-12T14:31:43;18.33;;;14.38;;
53409;SDS011;66590;50.734;4.246;2023-09-12T14:34:10;19.70;;;14.98;;
53409;SDS011;66590;50.734;4.246;2023-09-12T14:36:37;18.15;;;14.50;;
53409;SDS011;66590;50.734;4.246;2023-09-12T14:39:04;17.85;;;14.93;;